Historyczne dane pomiarowe

Dodano dane terminowe – wersja testowa.

Dane z okresu 1951-2019

Wersja bazy: 1.34 [2019-03-16, lista zmian], aktualizacja planowana na 2019-04-15

Dane meteo z obszaru Polski uzyskane na podstawie danych udostępnionych przez Instytut Meteorologii i Gospodarki Wodnej – Państwowy Instytut Badawczy.

 

Wybierz Datę:    

       

TemperaturaWilgotnośćWiatrCiśnienieOpadyŚniegCzas trwania zjawisk
 Stacja t tx tn tng RH VA  wxwx mslp ppp RRR   cm mm wxwxwxwxwxwxwx
1998-01-17 4.1 5.7 2.6 -0.8-- 8.0 4.0---- 2.6------------
1998-01-18 1.4 4.9 -1.5 -4.5-- 1.3 4.7---- 0.0------------
1998-01-19 3.2 5.3 1.0 -2.4-- 5.7 4.7---- 0.0------------
1998-01-20 2.1 5.4 -0.1 -3.0-- 4.7 1.3---- 0.4------------
1998-01-21 1.9 3.8 -0.1 -3.0-- 8.0 4.0---- 6.7------------
1998-01-22 0.8 2.0 0.2 -0.4-- 8.0 3.0---- 0.0------------
1998-01-23 -1.7 0.3 -3.0 -5.3-- 5.3 1.7---- 0.0------------
1998-01-24 -2.9 -1.0 -5.1 -6.7-- 8.0 2.0---- 0.0------------
1998-01-25 -3.0 -0.2 -4.7 -6.1-- 0.7 2.0---- 0.0------------
1998-01-26 -5.0 -3.2 -6.6 -8.2-- 7.7 1.3---- 0.0------------
1998-01-27 -3.5 0.0 -6.1 -6.1-- 2.7 1.7---- 0.0------------
1998-01-28 -4.1 -1.8 -6.6 -7.1-- 6.0 4.7---- 4.0------------
1998-01-29 -5.5 -1.2 -9.2-15.7-- 3.7 1.7---- 0.0-- 5---------
1998-01-30 -4.9 0.0-12.9-19.7-- 7.7 5.7---- 2.0-- 2---------
1998-01-31 -6.9 -0.3-11.8-19.7-- 3.3 2.7---- 0.0-- 5---------
1998-02-01-15.5 -5.4-20.0-25.6-- 0.0 0.3---- 0.0-- 5---------
1998-02-02-11.0 -3.5-18.7-24.7-- 2.0 4.7---- 0.0-- 5---------
1998-02-03 -3.3 -0.9 -5.6 -8.6-- 5.7 6.3---- 0.0-- 3---------
1998-02-04 -1.3 2.4 -4.1 -6.8-- 2.7 2.7---- 0.0-- 3---------
1998-02-05 -1.0 4.4 -3.3 -8.7-- 0.0 1.3---- 0.0------------
1998-02-06 0.7 3.0 -2.1 -6.1-- 8.0 0.7---- 1.0------------
1998-02-07 3.1 7.6 0.5 -0.5-- 4.3 2.3---- 0.0------------
1998-02-08 2.3 3.6 1.0 -2.5-- 7.7 3.7---- 0.0------------
1998-02-09 1.7 4.1 -0.5 -2.4-- 7.0 3.3---- 0.0------------
1998-02-10 3.7 10.5 1.0 -3.0-- 3.3 1.0---- 0.0------------
1998-02-11 3.2 9.3 -2.0 -4.3-- 3.0 2.0---- 0.0------------
1998-02-12 8.4 12.1 5.1 1.6-- 7.7 4.3---- 0.7------------
1998-02-13 7.9 10.5 6.2 5.2-- 8.0 7.0---- 11.3------------
1998-02-14 8.0 11.3 4.2 3.5-- 8.0 2.7---- 1.7------------
1998-02-15 10.2 12.5 9.2 8.0-- 8.0 4.3---- 3.0------------
2012.3 ms

 

Źródłem pochodzenia danych jest Instytut Meteorologii i Gospodarki Wodnej – Państwowy Instytut Badawczy. Dane Instytutu Meteorologii i Gospodarki Wodnej – Państwowego Instytutu Badawczego zostały przetworzone.

Dane źródłowe można odnaleźć na stronie https://dane.imgw.pl